sensor_id;sensor_type;location;lat;lon;timestamp;pressure;altitude;pressure_sealevel;temperature
60966;BMP180;46834;51.100;6.886;2023-03-23T00:01:29;100052.00;;;16.30
60966;BMP180;46834;51.100;6.886;2023-03-23T00:03:57;100062.00;;;16.30
60966;BMP180;46834;51.100;6.886;2023-03-23T00:06:27;100044.00;;;16.30
60966;BMP180;46834;51.100;6.886;2023-03-23T00:08:54;100048.00;;;16.30
60966;BMP180;46834;51.100;6.886;2023-03-23T00:11:27;100040.00;;;16.30
60966;BMP180;46834;51.100;6.886;2023-03-23T00:13:59;100044.00;;;16.30
60966;BMP180;46834;51.100;6.886;2023-03-23T00:16:29;100035.00;;;16.30
60966;BMP180;46834;51.100;6.886;2023-03-23T00:19:12;100049.00;;;16.30
60966;BMP180;46834;51.100;6.886;2023-03-23T00:21:43;100046.00;;;16.30
60966;BMP180;46834;51.100;6.886;2023-03-23T00:24:16;100031.00;;;16.20
60966;BMP180;46834;51.100;6.886;2023-03-23T00:26:46;100029.00;;;16.30
60966;BMP180;46834;51.100;6.886;2023-03-23T00:29:19;100030.00;;;16.30
60966;BMP180;46834;51.100;6.886;2023-03-23T00:31:47;100032.00;;;16.20
60966;BMP180;46834;51.100;6.886;2023-03-23T00:34:24;100030.00;;;16.20
60966;BMP180;46834;51.100;6.886;2023-03-23T00:36:54;100028.00;;;16.20
60966;BMP180;46834;51.100;6.886;2023-03-23T00:39:23;100024.00;;;16.20
60966;BMP180;46834;51.100;6.886;2023-03-23T00:41:51;100033.00;;;16.20
60966;BMP180;46834;51.100;6.886;2023-03-23T00:44:17;100027.00;;;16.20
60966;BMP180;46834;51.100;6.886;2023-03-23T00:46:47;100042.00;;;16.20
60966;BMP180;46834;51.100;6.886;2023-03-23T00:49:17;100019.00;;;16.20
60966;BMP180;46834;51.100;6.886;2023-03-23T00:51:44;100020.00;;;16.20
60966;BMP180;46834;51.100;6.886;2023-03-23T00:54:11;100022.00;;;16.20
60966;BMP180;46834;51.100;6.886;2023-03-23T00:56:37;100016.00;;;16.20
60966;BMP180;46834;51.100;6.886;2023-03-23T00:59:05;100008.00;;;16.20
60966;BMP180;46834;51.100;6.886;2023-03-23T01:01:31;100010.00;;;16.20
60966;BMP180;46834;51.100;6.886;2023-03-23T01:04:01;100005.00;;;16.20
60966;BMP180;46834;51.100;6.886;2023-03-23T01:06:31;99997.00;;;16.20
60966;BMP180;46834;51.100;6.886;2023-03-23T01:08:58;100008.00;;;16.20
60966;BMP180;46834;51.100;6.886;2023-03-23T01:11:24;100011.00;;;16.20
60966;BMP180;46834;51.100;6.886;2023-03-23T01:13:51;100015.00;;;16.20
60966;BMP180;46834;51.100;6.886;2023-03-23T01:16:17;100007.00;;;16.20
60966;BMP180;46834;51.100;6.886;2023-03-23T01:18:43;100004.00;;;16.20
60966;BMP180;46834;51.100;6.886;2023-03-23T01:21:13;99996.00;;;16.20
60966;BMP180;46834;51.100;6.886;2023-03-23T01:23:39;100001.00;;;16.20
60966;BMP180;46834;51.100;6.886;2023-03-23T01:26:12;99996.00;;;16.10
60966;BMP180;46834;51.100;6.886;2023-03-23T01:28:38;100001.00;;;16.20
60966;BMP180;46834;51.100;6.886;2023-03-23T01:31:09;99998.00;;;16.20
60966;BMP180;46834;51.100;6.886;2023-03-23T01:33:38;99999.00;;;16.20
60966;BMP180;46834;51.100;6.886;2023-03-23T01:36:12;100015.00;;;16.20
60966;BMP180;46834;51.100;6.886;2023-03-23T01:38:38;100007.00;;;16.20
60966;BMP180;46834;51.100;6.886;2023-03-23T01:41:05;100013.00;;;16.20
60966;BMP180;46834;51.100;6.886;2023-03-23T01:43:31;99996.00;;;16.20
60966;BMP180;46834;51.100;6.886;2023-03-23T01:45:57;99986.00;;;16.10
60966;BMP180;46834;51.100;6.886;2023-03-23T01:48:37;99979.00;;;16.10
60966;BMP180;46834;51.100;6.886;2023-03-23T01:51:12;99990.00;;;16.10
60966;BMP180;46834;51.100;6.886;2023-03-23T01:54:04;99984.00;;;16.00
60966;BMP180;46834;51.100;6.886;2023-03-23T01:56:50;99974.00;;;15.90
60966;BMP180;46834;51.100;6.886;2023-03-23T01:59:17;99992.00;;;16.00
60966;BMP180;46834;51.100;6.886;2023-03-23T02:01:46;99998.00;;;15.90
60966;BMP180;46834;51.100;6.886;2023-03-23T02:04:16;99976.00;;;15.90
60966;BMP180;46834;51.100;6.886;2023-03-23T02:06:43;99970.00;;;15.90
60966;BMP180;46834;51.100;6.886;2023-03-23T02:09:12;99970.00;;;15.90
60966;BMP180;46834;51.100;6.886;2023-03-23T02:11:45;99954.00;;;15.90
60966;BMP180;46834;51.100;6.886;2023-03-23T02:14:12;99954.00;;;15.90
60966;BMP180;46834;51.100;6.886;2023-03-23T02:17:25;99949.00;;;15.80
60966;BMP180;46834;51.100;6.886;2023-03-23T02:25:59;99931.00;;;15.70
60966;BMP180;46834;51.100;6.886;2023-03-23T02:29:16;99909.00;;;15.60
60966;BMP180;46834;51.100;6.886;2023-03-23T02:31:58;99905.00;;;15.60
60966;BMP180;46834;51.100;6.886;2023-03-23T02:37:07;99909.00;;;15.60
60966;BMP180;46834;51.100;6.886;2023-03-23T02:39:42;99895.00;;;15.60
60966;BMP180;46834;51.100;6.886;2023-03-23T02:42:15;99909.00;;;15.60
60966;BMP180;46834;51.100;6.886;2023-03-23T02:44:45;99896.00;;;15.60
60966;BMP180;46834;51.100;6.886;2023-03-23T02:47:17;99894.00;;;15.60
60966;BMP180;46834;51.100;6.886;2023-03-23T02:49:48;99906.00;;;15.60
60966;BMP180;46834;51.100;6.886;2023-03-23T02:52:22;99921.00;;;15.60
60966;BMP180;46834;51.100;6.886;2023-03-23T02:54:50;99918.00;;;15.60
60966;BMP180;46834;51.100;6.886;2023-03-23T02:57:16;99920.00;;;15.60
60966;BMP180;46834;51.100;6.886;2023-03-23T02:59:42;99934.00;;;15.60
60966;BMP180;46834;51.100;6.886;2023-03-23T03:02:21;99933.00;;;15.50
60966;BMP180;46834;51.100;6.886;2023-03-23T03:05:15;99927.00;;;15.50
60966;BMP180;46834;51.100;6.886;2023-03-23T03:08:13;99917.00;;;15.50
60966;BMP180;46834;51.100;6.886;2023-03-23T03:11:02;99922.00;;;15.50
60966;BMP180;46834;51.100;6.886;2023-03-23T03:13:44;99925.00;;;15.50
60966;BMP180;46834;51.100;6.886;2023-03-23T03:16:42;99920.00;;;15.40
60966;BMP180;46834;51.100;6.886;2023-03-23T03:19:26;99923.00;;;15.40
60966;BMP180;46834;51.100;6.886;2023-03-23T03:21:57;99920.00;;;15.50
60966;BMP180;46834;51.100;6.886;2023-03-23T03:24:27;99906.00;;;15.50
60966;BMP180;46834;51.100;6.886;2023-03-23T03:26:58;99923.00;;;15.50
60966;BMP180;46834;51.100;6.886;2023-03-23T03:29:32;99905.00;;;15.50
60966;BMP180;46834;51.100;6.886;2023-03-23T03:32:03;99916.00;;;15.50
60966;BMP180;46834;51.100;6.886;2023-03-23T03:34:34;99920.00;;;15.60
60966;BMP180;46834;51.100;6.886;2023-03-23T03:37:00;99922.00;;;15.60
60966;BMP180;46834;51.100;6.886;2023-03-23T03:39:29;99911.00;;;15.60
60966;BMP180;46834;51.100;6.886;2023-03-23T03:41:55;99935.00;;;15.60
60966;BMP180;46834;51.100;6.886;2023-03-23T03:44:21;99945.00;;;15.60
60966;BMP180;46834;51.100;6.886;2023-03-23T03:46:47;99942.00;;;15.60
60966;BMP180;46834;51.100;6.886;2023-03-23T03:49:12;99938.00;;;15.60
60966;BMP180;46834;51.100;6.886;2023-03-23T03:51:39;99944.00;;;15.60
60966;BMP180;46834;51.100;6.886;2023-03-23T03:54:06;99940.00;;;15.60
60966;BMP180;46834;51.100;6.886;2023-03-23T03:56:32;99926.00;;;15.60
60966;BMP180;46834;51.100;6.886;2023-03-23T03:59:02;99929.00;;;15.50
60966;BMP180;46834;51.100;6.886;2023-03-23T04:01:28;99929.00;;;15.50
60966;BMP180;46834;51.100;6.886;2023-03-23T04:03:54;99921.00;;;15.50
60966;BMP180;46834;51.100;6.886;2023-03-23T04:06:20;99914.00;;;15.50
60966;BMP180;46834;51.100;6.886;2023-03-23T04:08:46;99914.00;;;15.50
60966;BMP180;46834;51.100;6.886;2023-03-23T04:11:14;99922.00;;;15.50
60966;BMP180;46834;51.100;6.886;2023-03-23T04:13:41;99919.00;;;15.50
60966;BMP180;46834;51.100;6.886;2023-03-23T04:16:07;99922.00;;;15.50
60966;BMP180;46834;51.100;6.886;2023-03-23T04:18:35;99914.00;;;15.50
60966;BMP180;46834;51.100;6.886;2023-03-23T04:21:02;99925.00;;;15.50
60966;BMP180;46834;51.100;6.886;2023-03-23T04:23:30;99920.00;;;15.50
60966;BMP180;46834;51.100;6.886;2023-03-23T04:25:59;99927.00;;;15.50
60966;BMP180;46834;51.100;6.886;2023-03-23T04:28:26;99922.00;;;15.50
60966;BMP180;46834;51.100;6.886;2023-03-23T04:30:54;99931.00;;;15.50
60966;BMP180;46834;51.100;6.886;2023-03-23T04:33:25;99927.00;;;15.40
60966;BMP180;46834;51.100;6.886;2023-03-23T04:35:58;99928.00;;;15.40
60966;BMP180;46834;51.100;6.886;2023-03-23T04:38:27;99928.00;;;15.50
60966;BMP180;46834;51.100;6.886;2023-03-23T04:40:56;99932.00;;;15.50
60966;BMP180;46834;51.100;6.886;2023-03-23T04:43:23;99933.00;;;15.50
60966;BMP180;46834;51.100;6.886;2023-03-23T04:45:58;99937.00;;;15.40
60966;BMP180;46834;51.100;6.886;2023-03-23T04:48:28;99933.00;;;15.40
60966;BMP180;46834;51.100;6.886;2023-03-23T04:50:56;99953.00;;;15.50
60966;BMP180;46834;51.100;6.886;2023-03-23T04:53:22;99946.00;;;15.50
60966;BMP180;46834;51.100;6.886;2023-03-23T04:55:48;99958.00;;;15.50
60966;BMP180;46834;51.100;6.886;2023-03-23T04:58:15;99944.00;;;15.50
60966;BMP180;46834;51.100;6.886;2023-03-23T05:00:42;99948.00;;;15.50
60966;BMP180;46834;51.100;6.886;2023-03-23T05:03:18;99953.00;;;15.50
60966;BMP180;46834;51.100;6.886;2023-03-23T05:05:45;99962.00;;;15.50
60966;BMP180;46834;51.100;6.886;2023-03-23T05:08:22;99952.00;;;15.50
60966;BMP180;46834;51.100;6.886;2023-03-23T05:10:57;99956.00;;;15.50
60966;BMP180;46834;51.100;6.886;2023-03-23T05:13:24;99962.00;;;15.50
60966;BMP180;46834;51.100;6.886;2023-03-23T05:15:50;99953.00;;;15.50
60966;BMP180;46834;51.100;6.886;2023-03-23T05:18:16;99944.00;;;15.50
60966;BMP180;46834;51.100;6.886;2023-03-23T05:20:42;99959.00;;;15.50
60966;BMP180;46834;51.100;6.886;2023-03-23T05:23:12;99952.00;;;15.50
60966;BMP180;46834;51.100;6.886;2023-03-23T05:25:39;99936.00;;;15.50
60966;BMP180;46834;51.100;6.886;2023-03-23T05:28:13;99956.00;;;15.50
60966;BMP180;46834;51.100;6.886;2023-03-23T05:30:39;99960.00;;;15.50
60966;BMP180;46834;51.100;6.886;2023-03-23T05:33:05;99962.00;;;15.50
60966;BMP180;46834;51.100;6.886;2023-03-23T05:35:31;99956.00;;;15.50
60966;BMP180;46834;51.100;6.886;2023-03-23T05:37:57;99968.00;;;15.50
60966;BMP180;46834;51.100;6.886;2023-03-23T05:40:23;99957.00;;;15.50
60966;BMP180;46834;51.100;6.886;2023-03-23T05:42:51;99964.00;;;15.50
60966;BMP180;46834;51.100;6.886;2023-03-23T05:45:18;99968.00;;;15.50
60966;BMP180;46834;51.100;6.886;2023-03-23T05:47:44;99970.00;;;15.50
60966;BMP180;46834;51.100;6.886;2023-03-23T05:50:11;99960.00;;;15.60
60966;BMP180;46834;51.100;6.886;2023-03-23T05:52:39;99970.00;;;15.60
60966;BMP180;46834;51.100;6.886;2023-03-23T05:55:06;99969.00;;;15.50
60966;BMP180;46834;51.100;6.886;2023-03-23T05:57:34;99957.00;;;15.50
60966;BMP180;46834;51.100;6.886;2023-03-23T06:00:00;99972.00;;;15.50
60966;BMP180;46834;51.100;6.886;2023-03-23T06:02:27;99970.00;;;15.60
60966;BMP180;46834;51.100;6.886;2023-03-23T06:04:55;99978.00;;;15.60
60966;BMP180;46834;51.100;6.886;2023-03-23T06:07:26;99976.00;;;15.60
60966;BMP180;46834;51.100;6.886;2023-03-23T06:09:52;99972.00;;;15.60
60966;BMP180;46834;51.100;6.886;2023-03-23T06:12:21;99987.00;;;15.50
60966;BMP180;46834;51.100;6.886;2023-03-23T06:14:50;100002.00;;;15.60
60966;BMP180;46834;51.100;6.886;2023-03-23T06:17:16;99992.00;;;15.60
60966;BMP180;46834;51.100;6.886;2023-03-23T06:19:43;99989.00;;;15.60
60966;BMP180;46834;51.100;6.886;2023-03-23T06:22:09;100003.00;;;15.60
60966;BMP180;46834;51.100;6.886;2023-03-23T06:24:36;100005.00;;;15.60
60966;BMP180;46834;51.100;6.886;2023-03-23T06:27:04;100012.00;;;15.60
60966;BMP180;46834;51.100;6.886;2023-03-23T06:29:30;100002.00;;;15.60
60966;BMP180;46834;51.100;6.886;2023-03-23T06:32:00;99984.00;;;15.60
60966;BMP180;46834;51.100;6.886;2023-03-23T06:34:28;99988.00;;;15.70
60966;BMP180;46834;51.100;6.886;2023-03-23T06:36:55;99995.00;;;15.70
60966;BMP180;46834;51.100;6.886;2023-03-23T06:39:21;100012.00;;;15.70
60966;BMP180;46834;51.100;6.886;2023-03-23T06:41:48;100008.00;;;15.70
60966;BMP180;46834;51.100;6.886;2023-03-23T06:44:14;100015.00;;;15.80
60966;BMP180;46834;51.100;6.886;2023-03-23T06:46:41;100017.00;;;15.80
60966;BMP180;46834;51.100;6.886;2023-03-23T06:49:08;100007.00;;;15.80
60966;BMP180;46834;51.100;6.886;2023-03-23T06:51:34;100004.00;;;15.80
60966;BMP180;46834;51.100;6.886;2023-03-23T06:54:00;100014.00;;;15.80
60966;BMP180;46834;51.100;6.886;2023-03-23T06:56:26;100000.00;;;15.80
